sensor_id;sensor_type;location;lat;lon;timestamp;temperature;humidity
15083;DHT22;7640;53.116;6.878;2023-04-01T00:01:20;11.60;99.90
15083;DHT22;7640;53.116;6.878;2023-04-01T00:03:49;11.60;99.90
15083;DHT22;7640;53.116;6.878;2023-04-01T00:06:18;11.60;99.90
15083;DHT22;7640;53.116;6.878;2023-04-01T00:08:47;11.60;99.90
15083;DHT22;7640;53.116;6.878;2023-04-01T00:11:19;11.60;99.90
15083;DHT22;7640;53.116;6.878;2023-04-01T00:13:49;11.60;99.90
15083;DHT22;7640;53.116;6.878;2023-04-01T00:16:18;11.60;99.90
15083;DHT22;7640;53.116;6.878;2023-04-01T00:18:49;11.60;99.90
15083;DHT22;7640;53.116;6.878;2023-04-01T00:21:19;11.60;99.90
15083;DHT22;7640;53.116;6.878;2023-04-01T00:23:49;11.60;99.90
15083;DHT22;7640;53.116;6.878;2023-04-01T00:26:29;11.60;99.90
15083;DHT22;7640;53.116;6.878;2023-04-01T00:28:59;11.60;99.90
15083;DHT22;7640;53.116;6.878;2023-04-01T00:31:28;11.60;99.90
15083;DHT22;7640;53.116;6.878;2023-04-01T00:33:57;11.60;99.90
15083;DHT22;7640;53.116;6.878;2023-04-01T00:36:25;11.60;99.90
15083;DHT22;7640;53.116;6.878;2023-04-01T00:38:58;11.60;99.90
15083;DHT22;7640;53.116;6.878;2023-04-01T00:41:30;11.50;99.90
15083;DHT22;7640;53.116;6.878;2023-04-01T00:44:20;11.50;99.90
15083;DHT22;7640;53.116;6.878;2023-04-01T00:46:51;11.50;99.90
15083;DHT22;7640;53.116;6.878;2023-04-01T00:49:23;11.50;99.90
15083;DHT22;7640;53.116;6.878;2023-04-01T00:51:56;11.50;99.90
15083;DHT22;7640;53.116;6.878;2023-04-01T00:54:29;11.50;99.90
15083;DHT22;7640;53.116;6.878;2023-04-01T00:57:00;11.50;99.90
15083;DHT22;7640;53.116;6.878;2023-04-01T00:59:34;11.50;99.90
15083;DHT22;7640;53.116;6.878;2023-04-01T01:02:05;11.50;99.90
15083;DHT22;7640;53.116;6.878;2023-04-01T01:04:35;11.50;99.90
15083;DHT22;7640;53.116;6.878;2023-04-01T01:07:12;11.50;99.90
15083;DHT22;7640;53.116;6.878;2023-04-01T01:10:00;11.50;99.90
15083;DHT22;7640;53.116;6.878;2023-04-01T01:12:38;11.50;99.90
15083;DHT22;7640;53.116;6.878;2023-04-01T01:15:14;11.50;99.90
15083;DHT22;7640;53.116;6.878;2023-04-01T01:17:54;11.50;99.90
15083;DHT22;7640;53.116;6.878;2023-04-01T01:20:59;11.50;99.90
15083;DHT22;7640;53.116;6.878;2023-04-01T01:24:11;11.50;99.90
15083;DHT22;7640;53.116;6.878;2023-04-01T01:27:01;11.50;99.90
15083;DHT22;7640;53.116;6.878;2023-04-01T01:30:11;11.50;99.90
15083;DHT22;7640;53.116;6.878;2023-04-01T01:33:02;11.50;99.90
15083;DHT22;7640;53.116;6.878;2023-04-01T01:35:38;11.40;99.90
15083;DHT22;7640;53.116;6.878;2023-04-01T01:38:12;11.40;99.90
15083;DHT22;7640;53.116;6.878;2023-04-01T01:40:46;11.40;99.90
15083;DHT22;7640;53.116;6.878;2023-04-01T01:43:21;11.40;99.90
15083;DHT22;7640;53.116;6.878;2023-04-01T01:45:55;11.40;99.90
15083;DHT22;7640;53.116;6.878;2023-04-01T01:48:26;11.40;99.90
15083;DHT22;7640;53.116;6.878;2023-04-01T01:50:57;11.40;99.90
15083;DHT22;7640;53.116;6.878;2023-04-01T01:53:27;11.40;99.90
15083;DHT22;7640;53.116;6.878;2023-04-01T01:55:55;11.40;99.90
15083;DHT22;7640;53.116;6.878;2023-04-01T01:58:27;11.40;99.90
15083;DHT22;7640;53.116;6.878;2023-04-01T02:01:04;11.40;99.90
15083;DHT22;7640;53.116;6.878;2023-04-01T02:03:37;11.40;99.90
15083;DHT22;7640;53.116;6.878;2023-04-01T02:06:13;11.30;99.90
15083;DHT22;7640;53.116;6.878;2023-04-01T02:08:45;11.40;99.90
15083;DHT22;7640;53.116;6.878;2023-04-01T02:11:21;11.30;99.90
15083;DHT22;7640;53.116;6.878;2023-04-01T02:13:55;11.30;99.90
15083;DHT22;7640;53.116;6.878;2023-04-01T02:16:40;11.30;99.90
15083;DHT22;7640;53.116;6.878;2023-04-01T02:19:13;11.30;99.90
15083;DHT22;7640;53.116;6.878;2023-04-01T02:21:43;11.30;99.90
15083;DHT22;7640;53.116;6.878;2023-04-01T02:24:14;11.30;99.90
15083;DHT22;7640;53.116;6.878;2023-04-01T02:26:43;11.20;99.90
15083;DHT22;7640;53.116;6.878;2023-04-01T02:29:13;11.30;99.90
15083;DHT22;7640;53.116;6.878;2023-04-01T02:31:42;11.20;99.90
15083;DHT22;7640;53.116;6.878;2023-04-01T02:34:11;11.30;99.90
15083;DHT22;7640;53.116;6.878;2023-04-01T02:36:40;11.30;99.90
15083;DHT22;7640;53.116;6.878;2023-04-01T02:39:11;11.20;99.90
15083;DHT22;7640;53.116;6.878;2023-04-01T02:41:40;11.30;99.90
15083;DHT22;7640;53.116;6.878;2023-04-01T02:44:10;11.20;99.90
15083;DHT22;7640;53.116;6.878;2023-04-01T02:46:41;11.30;99.90
15083;DHT22;7640;53.116;6.878;2023-04-01T02:49:10;11.30;99.90
15083;DHT22;7640;53.116;6.878;2023-04-01T02:51:38;11.30;99.90
15083;DHT22;7640;53.116;6.878;2023-04-01T02:54:07;11.30;99.90
15083;DHT22;7640;53.116;6.878;2023-04-01T02:56:36;11.30;99.90
15083;DHT22;7640;53.116;6.878;2023-04-01T02:59:05;11.30;99.90
15083;DHT22;7640;53.116;6.878;2023-04-01T03:01:35;11.30;99.90
15083;DHT22;7640;53.116;6.878;2023-04-01T03:04:04;11.30;99.90
15083;DHT22;7640;53.116;6.878;2023-04-01T03:06:32;11.30;99.90
15083;DHT22;7640;53.116;6.878;2023-04-01T03:09:01;11.30;99.90
15083;DHT22;7640;53.116;6.878;2023-04-01T03:11:30;11.30;99.90
15083;DHT22;7640;53.116;6.878;2023-04-01T03:14:02;11.30;99.90
15083;DHT22;7640;53.116;6.878;2023-04-01T03:16:31;11.30;99.90
15083;DHT22;7640;53.116;6.878;2023-04-01T03:19:00;11.30;99.90
15083;DHT22;7640;53.116;6.878;2023-04-01T03:21:29;11.30;99.90
15083;DHT22;7640;53.116;6.878;2023-04-01T03:23:57;11.30;99.90
15083;DHT22;7640;53.116;6.878;2023-04-01T03:26:26;11.30;99.90
15083;DHT22;7640;53.116;6.878;2023-04-01T03:28:55;11.30;99.90
15083;DHT22;7640;53.116;6.878;2023-04-01T03:31:25;11.30;99.90
15083;DHT22;7640;53.116;6.878;2023-04-01T03:33:55;11.30;99.90
15083;DHT22;7640;53.116;6.878;2023-04-01T03:36:24;11.30;99.90
15083;DHT22;7640;53.116;6.878;2023-04-01T03:38:52;11.30;99.90
15083;DHT22;7640;53.116;6.878;2023-04-01T03:41:21;11.30;99.90
15083;DHT22;7640;53.116;6.878;2023-04-01T03:43:50;11.30;99.90
15083;DHT22;7640;53.116;6.878;2023-04-01T03:46:19;11.30;99.90
15083;DHT22;7640;53.116;6.878;2023-04-01T03:48:49;11.40;99.90
15083;DHT22;7640;53.116;6.878;2023-04-01T03:51:17;11.30;99.90
15083;DHT22;7640;53.116;6.878;2023-04-01T03:53:46;11.30;99.90
15083;DHT22;7640;53.116;6.878;2023-04-01T03:56:15;11.30;99.90
15083;DHT22;7640;53.116;6.878;2023-04-01T03:58:43;11.30;99.90
15083;DHT22;7640;53.116;6.878;2023-04-01T04:01:16;11.30;99.90
15083;DHT22;7640;53.116;6.878;2023-04-01T04:03:45;11.30;99.90
15083;DHT22;7640;53.116;6.878;2023-04-01T04:06:18;11.30;99.90
15083;DHT22;7640;53.116;6.878;2023-04-01T04:08:47;11.30;99.90
15083;DHT22;7640;53.116;6.878;2023-04-01T04:11:16;11.30;99.90
15083;DHT22;7640;53.116;6.878;2023-04-01T04:13:45;11.30;99.90
15083;DHT22;7640;53.116;6.878;2023-04-01T04:16:16;11.30;99.90
15083;DHT22;7640;53.116;6.878;2023-04-01T04:18:49;11.20;99.90
15083;DHT22;7640;53.116;6.878;2023-04-01T04:21:20;11.20;99.90
15083;DHT22;7640;53.116;6.878;2023-04-01T04:23:49;11.30;99.90
15083;DHT22;7640;53.116;6.878;2023-04-01T04:26:18;11.20;99.90
15083;DHT22;7640;53.116;6.878;2023-04-01T04:28:47;11.20;99.90
15083;DHT22;7640;53.116;6.878;2023-04-01T04:31:25;11.20;99.90
15083;DHT22;7640;53.116;6.878;2023-04-01T04:34:04;11.20;99.90
15083;DHT22;7640;53.116;6.878;2023-04-01T04:36:34;11.20;99.90
15083;DHT22;7640;53.116;6.878;2023-04-01T04:39:02;11.20;99.90
15083;DHT22;7640;53.116;6.878;2023-04-01T04:41:31;11.20;99.90
15083;DHT22;7640;53.116;6.878;2023-04-01T04:44:03;11.20;99.90
15083;DHT22;7640;53.116;6.878;2023-04-01T04:46:38;11.20;99.90
15083;DHT22;7640;53.116;6.878;2023-04-01T04:49:07;11.20;99.90
15083;DHT22;7640;53.116;6.878;2023-04-01T04:51:37;11.20;99.90
15083;DHT22;7640;53.116;6.878;2023-04-01T04:54:06;11.20;99.90
15083;DHT22;7640;53.116;6.878;2023-04-01T04:56:35;11.20;99.90
15083;DHT22;7640;53.116;6.878;2023-04-01T04:59:03;11.10;99.90
15083;DHT22;7640;53.116;6.878;2023-04-01T05:01:33;11.20;99.90
15083;DHT22;7640;53.116;6.878;2023-04-01T05:04:02;11.20;99.90
15083;DHT22;7640;53.116;6.878;2023-04-01T05:06:30;11.10;99.90
15083;DHT22;7640;53.116;6.878;2023-04-01T05:09:00;11.10;99.90
15083;DHT22;7640;53.116;6.878;2023-04-01T05:11:29;11.10;99.90
15083;DHT22;7640;53.116;6.878;2023-04-01T05:13:57;11.10;99.90
15083;DHT22;7640;53.116;6.878;2023-04-01T05:16:26;11.10;99.90
15083;DHT22;7640;53.116;6.878;2023-04-01T05:18:55;11.10;99.90
15083;DHT22;7640;53.116;6.878;2023-04-01T05:21:24;11.10;99.90
15083;DHT22;7640;53.116;6.878;2023-04-01T05:23:53;11.10;99.90
15083;DHT22;7640;53.116;6.878;2023-04-01T05:26:24;11.10;99.90
15083;DHT22;7640;53.116;6.878;2023-04-01T05:28:53;11.10;99.90
15083;DHT22;7640;53.116;6.878;2023-04-01T05:31:22;11.10;99.90
15083;DHT22;7640;53.116;6.878;2023-04-01T05:33:52;11.10;99.90
15083;DHT22;7640;53.116;6.878;2023-04-01T05:36:22;11.10;99.90
15083;DHT22;7640;53.116;6.878;2023-04-01T05:38:55;11.10;99.90
15083;DHT22;7640;53.116;6.878;2023-04-01T05:41:26;11.10;99.90
15083;DHT22;7640;53.116;6.878;2023-04-01T05:43:55;11.10;99.90
15083;DHT22;7640;53.116;6.878;2023-04-01T05:46:24;11.20;99.90
15083;DHT22;7640;53.116;6.878;2023-04-01T05:48:53;11.20;99.90
15083;DHT22;7640;53.116;6.878;2023-04-01T05:51:21;11.20;99.90
15083;DHT22;7640;53.116;6.878;2023-04-01T05:53:51;11.20;99.90
15083;DHT22;7640;53.116;6.878;2023-04-01T05:56:20;11.20;99.90
15083;DHT22;7640;53.116;6.878;2023-04-01T05:58:52;11.20;99.90
15083;DHT22;7640;53.116;6.878;2023-04-01T06:01:22;11.20;99.90
15083;DHT22;7640;53.116;6.878;2023-04-01T06:03:51;11.20;99.90
15083;DHT22;7640;53.116;6.878;2023-04-01T06:06:24;11.20;99.90
15083;DHT22;7640;53.116;6.878;2023-04-01T06:08:57;11.20;99.90
15083;DHT22;7640;53.116;6.878;2023-04-01T06:11:34;11.20;99.90
15083;DHT22;7640;53.116;6.878;2023-04-01T06:14:20;11.30;99.90
15083;DHT22;7640;53.116;6.878;2023-04-01T06:17:06;11.30;99.90
15083;DHT22;7640;53.116;6.878;2023-04-01T06:19:50;11.30;99.90
15083;DHT22;7640;53.116;6.878;2023-04-01T06:22:32;11.30;99.90
15083;DHT22;7640;53.116;6.878;2023-04-01T06:25:29;11.30;99.90
15083;DHT22;7640;53.116;6.878;2023-04-01T06:28:17;11.30;99.90
15083;DHT22;7640;53.116;6.878;2023-04-01T06:31:13;11.30;99.90
15083;DHT22;7640;53.116;6.878;2023-04-01T06:34:00;11.30;99.90
15083;DHT22;7640;53.116;6.878;2023-04-01T06:36:50;11.30;99.90
15083;DHT22;7640;53.116;6.878;2023-04-01T06:39:58;11.30;99.90
15083;DHT22;7640;53.116;6.878;2023-04-01T06:42:52;11.30;99.90
15083;DHT22;7640;53.116;6.878;2023-04-01T06:45:34;11.30;99.90
15083;DHT22;7640;53.116;6.878;2023-04-01T06:48:22;11.30;99.90
15083;DHT22;7640;53.116;6.878;2023-04-01T06:51:06;11.40;99.90
15083;DHT22;7640;53.116;6.878;2023-04-01T06:53:45;11.40;99.90
15083;DHT22;7640;53.116;6.878;2023-04-01T06:56:21;11.40;99.90
15083;DHT22;7640;53.116;6.878;2023-04-01T06:58:57;11.40;99.90
15083;DHT22;7640;53.116;6.878;2023-04-01T07:01:39;11.50;99.90
15083;DHT22;7640;53.116;6.878;2023-04-01T07:04:14;11.50;99.90
15083;DHT22;7640;53.116;6.878;2023-04-01T07:07:16;11.50;99.90
15083;DHT22;7640;53.116;6.878;2023-04-01T07:09:52;11.50;99.90
15083;DHT22;7640;53.116;6.878;2023-04-01T07:12:33;11.60;99.90
15083;DHT22;7640;53.116;6.878;2023-04-01T07:15:15;11.60;99.90
15083;DHT22;7640;53.116;6.878;2023-04-01T07:17:53;11.70;99.90
15083;DHT22;7640;53.116;6.878;2023-04-01T07:20:29;11.70;99.90
15083;DHT22;7640;53.116;6.878;2023-04-01T07:23:00;11.70;99.90
15083;DHT22;7640;53.116;6.878;2023-04-01T07:25:34;11.80;99.90
15083;DHT22;7640;53.116;6.878;2023-04-01T07:28:06;11.80;99.90
15083;DHT22;7640;53.116;6.878;2023-04-01T07:30:48;11.90;99.90
15083;DHT22;7640;53.116;6.878;2023-04-01T07:33:32;12.00;99.90
15083;DHT22;7640;53.116;6.878;2023-04-01T07:36:12;12.00;99.90
15083;DHT22;7640;53.116;6.878;2023-04-01T07:38:52;12.10;99.90
15083;DHT22;7640;53.116;6.878;2023-04-01T07:41:36;12.20;99.90
15083;DHT22;7640;53.116;6.878;2023-04-01T07:44:16;12.20;99.90
15083;DHT22;7640;53.116;6.878;2023-04-01T07:47:03;12.20;99.90
15083;DHT22;7640;53.116;6.878;2023-04-01T07:49:50;12.30;99.90
15083;DHT22;7640;53.116;6.878;2023-04-01T07:52:31;12.30;99.90
15083;DHT22;7640;53.116;6.878;2023-04-01T07:55:09;12.40;99.90
15083;DHT22;7640;53.116;6.878;2023-04-01T07:57:49;12.40;99.90
15083;DHT22;7640;53.116;6.878;2023-04-01T08:00:22;12.40;99.90
15083;DHT22;7640;53.116;6.878;2023-04-01T08:03:29;12.40;99.90
15083;DHT22;7640;53.116;6.878;2023-04-01T08:06:09;12.40;99.90
15083;DHT22;7640;53.116;6.878;2023-04-01T08:08:55;12.40;99.90
15083;DHT22;7640;53.116;6.878;2023-04-01T08:11:40;12.40;99.90
15083;DHT22;7640;53.116;6.878;2023-04-01T08:14:17;12.40;99.90
15083;DHT22;7640;53.116;6.878;2023-04-01T08:16:59;12.50;99.90
15083;DHT22;7640;53.116;6.878;2023-04-01T08:19:42;12.50;99.90
15083;DHT22;7640;53.116;6.878;2023-04-01T08:22:23;12.50;99.90
15083;DHT22;7640;53.116;6.878;2023-04-01T08:25:01;12.60;99.90
15083;DHT22;7640;53.116;6.878;2023-04-01T08:27:39;12.60;99.90
15083;DHT22;7640;53.116;6.878;2023-04-01T08:30:20;12.60;99.90
15083;DHT22;7640;53.116;6.878;2023-04-01T08:32:55;12.70;99.90
15083;DHT22;7640;53.116;6.878;2023-04-01T08:35:28;12.70;99.90
15083;DHT22;7640;53.116;6.878;2023-04-01T08:38:06;12.70;99.90
15083;DHT22;7640;53.116;6.878;2023-04-01T08:40:55;12.70;99.90
15083;DHT22;7640;53.116;6.878;2023-04-01T08:43:55;12.70;99.90
15083;DHT22;7640;53.116;6.878;2023-04-01T08:46:45;12.70;99.90
15083;DHT22;7640;53.116;6.878;2023-04-01T08:49:52;12.60;99.90
15083;DHT22;7640;53.116;6.878;2023-04-01T08:52:36;12.70;99.90
15083;DHT22;7640;53.116;6.878;2023-04-01T08:55:27;12.80;99.90
15083;DHT22;7640;53.116;6.878;2023-04-01T09:01:33;12.90;99.90
15083;DHT22;7640;53.116;6.878;2023-04-01T09:04:25;12.90;99.90
15083;DHT22;7640;53.116;6.878;2023-04-01T09:07:20;13.00;99.90
15083;DHT22;7640;53.116;6.878;2023-04-01T09:10:24;13.00;99.90
15083;DHT22;7640;53.116;6.878;2023-04-01T09:13:15;13.10;99.90
15083;DHT22;7640;53.116;6.878;2023-04-01T09:16:23;13.00;99.90
15083;DHT22;7640;53.116;6.878;2023-04-01T09:19:09;13.00;99.90
15083;DHT22;7640;53.116;6.878;2023-04-01T09:22:07;13.00;99.90
15083;DHT22;7640;53.116;6.878;2023-04-01T09:25:29;13.00;99.90
15083;DHT22;7640;53.116;6.878;2023-04-01T09:28:10;12.90;99.90
15083;DHT22;7640;53.116;6.878;2023-04-01T09:37:30;12.60;99.90
15083;DHT22;7640;53.116;6.878;2023-04-01T09:40:15;12.50;99.90
15083;DHT22;7640;53.116;6.878;2023-04-01T09:42:55;12.40;99.90
15083;DHT22;7640;53.116;6.878;2023-04-01T09:49:09;12.20;99.90
15083;DHT22;7640;53.116;6.878;2023-04-01T09:52:06;12.10;99.90
15083;DHT22;7640;53.116;6.878;2023-04-01T09:54:53;12.20;99.90
15083;DHT22;7640;53.116;6.878;2023-04-01T09:58:03;12.10;99.90
15083;DHT22;7640;53.116;6.878;2023-04-01T10:00:54;12.10;99.90
15083;DHT22;7640;53.116;6.878;2023-04-01T10:10:47;12.30;99.90
15083;DHT22;7640;53.116;6.878;2023-04-01T10:14:02;12.30;99.90
15083;DHT22;7640;53.116;6.878;2023-04-01T10:20:45;12.30;99.90
15083;DHT22;7640;53.116;6.878;2023-04-01T10:24:10;12.20;99.90
15083;DHT22;7640;53.116;6.878;2023-04-01T10:27:15;12.10;99.90
15083;DHT22;7640;53.116;6.878;2023-04-01T10:30:13;12.10;99.90
15083;DHT22;7640;53.116;6.878;2023-04-01T10:33:19;12.10;99.90
15083;DHT22;7640;53.116;6.878;2023-04-01T10:39:37;12.20;99.90
15083;DHT22;7640;53.116;6.878;2023-04-01T10:42:44;12.20;99.90
15083;DHT22;7640;53.116;6.878;2023-04-01T10:49:10;12.10;99.90
15083;DHT22;7640;53.116;6.878;2023-04-01T10:52:33;12.10;99.90
15083;DHT22;7640;53.116;6.878;2023-04-01T10:55:36;12.10;99.90
15083;DHT22;7640;53.116;6.878;2023-04-01T11:02:05;12.20;99.90
15083;DHT22;7640;53.116;6.878;2023-04-01T11:08:30;12.10;99.90
15083;DHT22;7640;53.116;6.878;2023-04-01T11:21:59;12.30;99.90
15083;DHT22;7640;53.116;6.878;2023-04-01T11:25:17;12.40;99.90
15083;DHT22;7640;53.116;6.878;2023-04-01T11:28:20;12.40;99.90
15083;DHT22;7640;53.116;6.878;2023-04-01T11:31:18;12.50;99.90
15083;DHT22;7640;53.116;6.878;2023-04-01T11:34:13;12.50;99.90
15083;DHT22;7640;53.116;6.878;2023-04-01T11:36:57;12.50;99.90
15083;DHT22;7640;53.116;6.878;2023-04-01T11:39:38;12.60;99.90
15083;DHT22;7640;53.116;6.878;2023-04-01T11:42:19;12.60;99.90
15083;DHT22;7640;53.116;6.878;2023-04-01T11:45:01;12.70;99.90
15083;DHT22;7640;53.116;6.878;2023-04-01T11:54:28;12.80;99.90
15083;DHT22;7640;53.116;6.878;2023-04-01T11:57:17;12.70;99.90
15083;DHT22;7640;53.116;6.878;2023-04-01T12:00:05;12.70;99.90
15083;DHT22;7640;53.116;6.878;2023-04-01T12:03:00;12.70;99.90
15083;DHT22;7640;53.116;6.878;2023-04-01T12:05:42;12.80;99.90
15083;DHT22;7640;53.116;6.878;2023-04-01T12:08:21;12.80;99.90
15083;DHT22;7640;53.116;6.878;2023-04-01T12:11:00;12.80;99.90
15083;DHT22;7640;53.116;6.878;2023-04-01T12:13:42;12.70;99.90
15083;DHT22;7640;53.116;6.878;2023-04-01T12:16:41;12.60;99.90
15083;DHT22;7640;53.116;6.878;2023-04-01T12:19:26;12.60;99.90
15083;DHT22;7640;53.116;6.878;2023-04-01T12:22:23;12.60;99.90
15083;DHT22;7640;53.116;6.878;2023-04-01T12:25:16;12.60;99.90
15083;DHT22;7640;53.116;6.878;2023-04-01T12:28:00;12.60;99.90
15083;DHT22;7640;53.116;6.878;2023-04-01T12:30:47;12.60;99.90
15083;DHT22;7640;53.116;6.878;2023-04-01T12:33:48;12.70;99.90
15083;DHT22;7640;53.116;6.878;2023-04-01T12:36:31;12.70;99.90
15083;DHT22;7640;53.116;6.878;2023-04-01T12:42:31;12.80;99.90
15083;DHT22;7640;53.116;6.878;2023-04-01T12:48:31;12.60;99.90
15083;DHT22;7640;53.116;6.878;2023-04-01T12:51:24;12.50;99.90
15083;DHT22;7640;53.116;6.878;2023-04-01T12:54:14;12.50;99.90
15083;DHT22;7640;53.116;6.878;2023-04-01T12:57:10;12.50;99.90
15083;DHT22;7640;53.116;6.878;2023-04-01T13:00:03;12.50;99.90
15083;DHT22;7640;53.116;6.878;2023-04-01T13:02:49;12.50;99.90
15083;DHT22;7640;53.116;6.878;2023-04-01T13:05:43;12.40;99.90
15083;DHT22;7640;53.116;6.878;2023-04-01T13:08:34;12.40;99.90
15083;DHT22;7640;53.116;6.878;2023-04-01T13:11:09;12.30;99.90
15083;DHT22;7640;53.116;6.878;2023-04-01T13:17:10;12.30;99.90
15083;DHT22;7640;53.116;6.878;2023-04-01T13:19:48;12.20;99.90
15083;DHT22;7640;53.116;6.878;2023-04-01T13:22:48;12.10;99.90
15083;DHT22;7640;53.116;6.878;2023-04-01T13:25:31;12.10;99.90
15083;DHT22;7640;53.116;6.878;2023-04-01T13:28:12;12.00;99.90
15083;DHT22;7640;53.116;6.878;2023-04-01T13:30:49;11.90;99.90
15083;DHT22;7640;53.116;6.878;2023-04-01T13:33:30;11.80;99.90
15083;DHT22;7640;53.116;6.878;2023-04-01T13:36:15;11.80;99.90
15083;DHT22;7640;53.116;6.878;2023-04-01T13:39:06;11.80;99.90
15083;DHT22;7640;53.116;6.878;2023-04-01T13:42:06;11.70;99.90
15083;DHT22;7640;53.116;6.878;2023-04-01T13:44:45;11.70;99.90
15083;DHT22;7640;53.116;6.878;2023-04-01T13:47:59;11.60;99.90
15083;DHT22;7640;53.116;6.878;2023-04-01T13:51:12;11.60;99.90
15083;DHT22;7640;53.116;6.878;2023-04-01T13:54:29;11.60;99.90
15083;DHT22;7640;53.116;6.878;2023-04-01T13:57:23;11.60;99.90
15083;DHT22;7640;53.116;6.878;2023-04-01T14:00:19;11.60;99.90
15083;DHT22;7640;53.116;6.878;2023-04-01T14:03:26;11.60;99.90
15083;DHT22;7640;53.116;6.878;2023-04-01T14:06:14;11.60;99.90
15083;DHT22;7640;53.116;6.878;2023-04-01T14:12:04;11.50;99.90
15083;DHT22;7640;53.116;6.878;2023-04-01T14:14:48;11.50;99.90
15083;DHT22;7640;53.116;6.878;2023-04-01T14:17:37;11.50;99.90
15083;DHT22;7640;53.116;6.878;2023-04-01T14:20:24;11.40;99.90
15083;DHT22;7640;53.116;6.878;2023-04-01T14:26:23;11.40;99.90
15083;DHT22;7640;53.116;6.878;2023-04-01T14:29:11;11.30;99.90
15083;DHT22;7640;53.116;6.878;2023-04-01T14:32:00;11.30;99.90
15083;DHT22;7640;53.116;6.878;2023-04-01T14:34:45;11.40;99.90
15083;DHT22;7640;53.116;6.878;2023-04-01T14:37:52;11.40;99.90
15083;DHT22;7640;53.116;6.878;2023-04-01T14:40:44;11.30;99.90
15083;DHT22;7640;53.116;6.878;2023-04-01T14:43:48;11.30;99.90
15083;DHT22;7640;53.116;6.878;2023-04-01T14:47:07;11.20;99.90
15083;DHT22;7640;53.116;6.878;2023-04-01T14:49:41;11.10;99.90
15083;DHT22;7640;53.116;6.878;2023-04-01T14:52:15;11.10;99.90
15083;DHT22;7640;53.116;6.878;2023-04-01T14:54:46;11.10;99.90
15083;DHT22;7640;53.116;6.878;2023-04-01T14:57:24;11.10;99.90
15083;DHT22;7640;53.116;6.878;2023-04-01T15:00:00;11.10;99.90
15083;DHT22;7640;53.116;6.878;2023-04-01T15:02:50;11.10;99.90
15083;DHT22;7640;53.116;6.878;2023-04-01T15:05:32;11.10;99.90
15083;DHT22;7640;53.116;6.878;2023-04-01T15:08:21;11.10;99.90
15083;DHT22;7640;53.116;6.878;2023-04-01T15:11:12;11.00;99.90
15083;DHT22;7640;53.116;6.878;2023-04-01T15:14:36;11.00;99.90
15083;DHT22;7640;53.116;6.878;2023-04-01T15:17:44;10.90;99.90
15083;DHT22;7640;53.116;6.878;2023-04-01T15:20:35;10.80;99.90
15083;DHT22;7640;53.116;6.878;2023-04-01T15:26:32;10.70;99.90
15083;DHT22;7640;53.116;6.878;2023-04-01T15:29:32;10.60;99.90
15083;DHT22;7640;53.116;6.878;2023-04-01T15:32:16;10.60;99.90
15083;DHT22;7640;53.116;6.878;2023-04-01T15:34:52;10.50;99.90
15083;DHT22;7640;53.116;6.878;2023-04-01T15:37:33;10.40;99.90
15083;DHT22;7640;53.116;6.878;2023-04-01T15:40:15;10.30;99.90
15083;DHT22;7640;53.116;6.878;2023-04-01T15:42:59;10.30;99.90
15083;DHT22;7640;53.116;6.878;2023-04-01T15:45:40;10.20;99.90
15083;DHT22;7640;53.116;6.878;2023-04-01T15:48:33;10.20;99.90
15083;DHT22;7640;53.116;6.878;2023-04-01T15:51:21;10.20;99.90
15083;DHT22;7640;53.116;6.878;2023-04-01T15:55:01;10.10;99.90
15083;DHT22;7640;53.116;6.878;2023-04-01T15:57:54;10.00;99.90
15083;DHT22;7640;53.116;6.878;2023-04-01T16:00:31;10.00;99.90
15083;DHT22;7640;53.116;6.878;2023-04-01T16:03:18;9.90;99.90
15083;DHT22;7640;53.116;6.878;2023-04-01T16:06:13;9.90;99.90
15083;DHT22;7640;53.116;6.878;2023-04-01T16:09:16;9.80;99.90
15083;DHT22;7640;53.116;6.878;2023-04-01T16:11:58;9.80;99.90
15083;DHT22;7640;53.116;6.878;2023-04-01T16:14:38;9.70;99.90
15083;DHT22;7640;53.116;6.878;2023-04-01T16:17:31;9.70;99.90
15083;DHT22;7640;53.116;6.878;2023-04-01T16:20:18;9.70;99.90
15083;DHT22;7640;53.116;6.878;2023-04-01T16:22:55;9.70;99.90
15083;DHT22;7640;53.116;6.878;2023-04-01T16:25:33;9.70;99.90
15083;DHT22;7640;53.116;6.878;2023-04-01T16:28:16;9.70;99.90
15083;DHT22;7640;53.116;6.878;2023-04-01T16:30:56;9.60;99.90
15083;DHT22;7640;53.116;6.878;2023-04-01T16:33:35;9.60;99.90
15083;DHT22;7640;53.116;6.878;2023-04-01T16:36:20;9.60;99.90
15083;DHT22;7640;53.116;6.878;2023-04-01T16:39:14;9.60;99.90
15083;DHT22;7640;53.116;6.878;2023-04-01T16:41:49;9.60;99.90
15083;DHT22;7640;53.116;6.878;2023-04-01T16:44:24;9.50;99.90
15083;DHT22;7640;53.116;6.878;2023-04-01T16:46:56;9.50;99.90
15083;DHT22;7640;53.116;6.878;2023-04-01T16:49:32;9.50;99.90
15083;DHT22;7640;53.116;6.878;2023-04-01T16:52:15;9.40;99.90
15083;DHT22;7640;53.116;6.878;2023-04-01T16:54:54;9.40;99.90
15083;DHT22;7640;53.116;6.878;2023-04-01T16:57:27;9.30;99.90
15083;DHT22;7640;53.116;6.878;2023-04-01T17:00:16;9.30;99.90
15083;DHT22;7640;53.116;6.878;2023-04-01T17:03:02;9.20;99.90
15083;DHT22;7640;53.116;6.878;2023-04-01T17:05:55;9.20;99.90
15083;DHT22;7640;53.116;6.878;2023-04-01T17:08:53;9.20;99.90
15083;DHT22;7640;53.116;6.878;2023-04-01T17:11:38;9.10;99.90
15083;DHT22;7640;53.116;6.878;2023-04-01T17:14:20;9.00;99.90
15083;DHT22;7640;53.116;6.878;2023-04-01T17:17:11;9.00;99.90
15083;DHT22;7640;53.116;6.878;2023-04-01T17:19:53;8.90;99.90
15083;DHT22;7640;53.116;6.878;2023-04-01T17:22:33;8.80;99.90
15083;DHT22;7640;53.116;6.878;2023-04-01T17:25:19;8.80;99.90
15083;DHT22;7640;53.116;6.878;2023-04-01T17:27:59;8.70;99.90
15083;DHT22;7640;53.116;6.878;2023-04-01T17:30:37;8.70;99.90
15083;DHT22;7640;53.116;6.878;2023-04-01T17:33:31;8.70;99.90
15083;DHT22;7640;53.116;6.878;2023-04-01T17:36:19;8.70;99.90
15083;DHT22;7640;53.116;6.878;2023-04-01T17:39:11;8.70;99.90
15083;DHT22;7640;53.116;6.878;2023-04-01T17:41:52;8.60;99.90
15083;DHT22;7640;53.116;6.878;2023-04-01T17:44:52;8.60;99.90
15083;DHT22;7640;53.116;6.878;2023-04-01T17:47:31;8.60;99.90
15083;DHT22;7640;53.116;6.878;2023-04-01T17:50:14;8.50;99.90
15083;DHT22;7640;53.116;6.878;2023-04-01T17:53:07;8.50;99.90
15083;DHT22;7640;53.116;6.878;2023-04-01T17:56:11;8.50;99.90
15083;DHT22;7640;53.116;6.878;2023-04-01T17:58:46;8.50;99.90
15083;DHT22;7640;53.116;6.878;2023-04-01T18:01:30;8.50;99.90
15083;DHT22;7640;53.116;6.878;2023-04-01T18:07:37;8.40;99.90
15083;DHT22;7640;53.116;6.878;2023-04-01T18:10:28;8.30;99.90
15083;DHT22;7640;53.116;6.878;2023-04-01T18:13:25;8.30;99.90
15083;DHT22;7640;53.116;6.878;2023-04-01T18:16:17;8.30;99.90
15083;DHT22;7640;53.116;6.878;2023-04-01T18:19:00;8.20;99.90
15083;DHT22;7640;53.116;6.878;2023-04-01T18:21:36;8.20;99.90
15083;DHT22;7640;53.116;6.878;2023-04-01T18:24:24;8.20;99.90
15083;DHT22;7640;53.116;6.878;2023-04-01T18:27:02;8.10;99.90
15083;DHT22;7640;53.116;6.878;2023-04-01T18:29:37;8.20;99.90
15083;DHT22;7640;53.116;6.878;2023-04-01T18:32:15;8.10;99.90
15083;DHT22;7640;53.116;6.878;2023-04-01T18:34:59;8.10;99.90
15083;DHT22;7640;53.116;6.878;2023-04-01T18:37:34;8.10;99.90
15083;DHT22;7640;53.116;6.878;2023-04-01T18:40:15;8.10;99.90